Gassim Airport


Codes: OEGS/ELQ
Name: Gassim Airport
City:
Country: Saudi Arabia
Elevation: 2126 ft.
Wikipedia:

Photos at Gassim Airport


   Photos courtesy of SpottingLog. You can add your own sightings and photos by signing up for a free trial today.



No photos found.

Weather at Gassim Airport


Time (UTC)DescriptionTempratureWindCloud coverageVisibilityPressureHumidity
25-Jun-2024 15:00Clear Sky42°C9 mph, N0%10000m1000hPa7%
25-Jun-2024 18:00Clear Sky38°C11 mph, N0%10000m1001hPa9%
25-Jun-2024 21:00Clear Sky32°C11 mph, N0%10000m1001hPa14%
26-Jun-2024 00:00Clear Sky31°C11 mph, N0%10000m1001hPa17%
26-Jun-2024 03:00Clear Sky30°C9 mph, NE0%10000m1002hPa17%
26-Jun-2024 06:00Clear Sky38°C11 mph, NE0%10000m1002hPa10%
26-Jun-2024 09:00Clear Sky41°C9 mph, N0%10000m1000hPa8%
26-Jun-2024 12:00Clear Sky43°C11 mph, NW0%10000m998hPa6%
26-Jun-2024 15:00Clear Sky42°C11 mph, N0%10000m998hPa7%
26-Jun-2024 18:00Clear Sky35°C9 mph, N0%10000m999hPa9%
26-Jun-2024 21:00Few Clouds32°C7 mph, NE24%10000m1000hPa10%
27-Jun-2024 00:00Few Clouds31°C9 mph, N15%10000m1000hPa12%
27-Jun-2024 03:00Clear Sky30°C4 mph, NE5%10000m1002hPa14%
27-Jun-2024 06:00Scattered Clouds37°C4 mph, NE36%10000m1002hPa9%
27-Jun-2024 09:00Broken Clouds41°C4 mph, E75%10000m1000hPa7%
27-Jun-2024 12:00Scattered Clouds43°C4 mph, NE49%10000m998hPa6%
27-Jun-2024 15:00Few Clouds42°C7 mph, NE22%10000m998hPa6%
27-Jun-2024 18:00Few Clouds36°C11 mph, NE17%10000m1000hPa8%
27-Jun-2024 21:00Few Clouds33°C11 mph, NE12%10000m1001hPa10%
28-Jun-2024 00:00Clear Sky30°C7 mph, E9%10000m1001hPa12%
28-Jun-2024 03:00Few Clouds30°C4 mph, E19%10000m1002hPa13%
28-Jun-2024 06:00Few Clouds37°C4 mph, E19%10000m1003hPa9%
28-Jun-2024 09:00Clear Sky42°C7 mph, E8%10000m1001hPa6%
28-Jun-2024 12:00Clear Sky43°C7 mph, NE4%10000m999hPa5%
28-Jun-2024 15:00Clear Sky42°C9 mph, NE0%10000m999hPa6%
28-Jun-2024 18:00Clear Sky36°C9 mph, NE0%10000m1000hPa8%
28-Jun-2024 21:00Clear Sky34°C9 mph, N0%10000m1000hPa10%
29-Jun-2024 00:00Clear Sky31°C11 mph, N0%10000m1000hPa11%
29-Jun-2024 03:00Clear Sky29°C4 mph, SW0%10000m1002hPa13%
29-Jun-2024 06:00Clear Sky37°C2 mph, SE0%10000m1002hPa8%
29-Jun-2024 09:00Clear Sky42°C4 mph, E1%10000m1000hPa6%
29-Jun-2024 12:00Clear Sky44°C9 mph, NE0%10000m998hPa5%
29-Jun-2024 15:00Clear Sky43°C11 mph, NE0%10000m998hPa6%
29-Jun-2024 18:00Clear Sky36°C11 mph, NE0%10000m1000hPa8%
29-Jun-2024 21:00Clear Sky33°C7 mph, E0%10000m1000hPa10%
30-Jun-2024 00:00Few Clouds31°C9 mph, NE15%10000m1000hPa11%
30-Jun-2024 03:00Overcast Clouds29°C4 mph, SW100%10000m1002hPa13%
30-Jun-2024 06:00Overcast Clouds37°C4 mph, SE99%10000m1002hPa7%
30-Jun-2024 09:00Broken Clouds43°C9 mph, E73%10000m1000hPa6%
30-Jun-2024 12:00Scattered Clouds44°C4 mph, E37%10000m998hPa5%